首页
METAR-TAF:

METAR-TAF

机场 :

南京禄口国际机场

南京, 中华人民共和国

纬度: 32-00N, 经度: 118-48E, 海拔: 12米

当前天气观测

该预报发布于29分钟前的02:00 UTC
风速10节,风向,在东转东南之间变化
温度 31°C
湿度 71%
气压 1003 hPa
能见度10公里或以上
1500米以下无云,无积雨云

METAR: ZSNJ 190200Z 17005MPS 120V190 CAVOK 31/25 Q1003 NOSIG

时间: 10:29 (02:29 UTC)

预报

该预报发布于7小时和28分钟前的19:01 UTC
预报有效从19日的 00点(UTC)到 19日的 24点(UTC)
风速10节,风向东南
能見度: 3500

TAF: ZSNJ 181901Z 1900/1924 13005MPS 3500 HZ NSC TX33/1907Z TN25/1921Z

超过4000个机场的气象观测和天气预报(METAR&TAF报告)。

可查询的气象台以黄色和红色小点在地图上表示。

将鼠标移到小点上方,可查看气象台名称。

然后点击查看天气观测和预报。

如需切换地图:点击带黑十字的绿色按钮放大地图;点击带横线的绿色按钮缩小地图;或者点击绿色箭头查看邻近地区的地图。


METAR-TAF: